Time;durP1;ratioP1;P1;durP2;ratioP2;P2;SDS_P1;SDS_P2;PMS_P1;PMS_P2;Temp;Humidity;BMP_temperature;BMP_pressure;BME280_temperature;BME280_humidity;BME280_pressure;Samples;Min_cycle;Max_cycle;Signal;HPM_P1;HPM_P2
2023/07/24 00:01:41;;;;;;;383.50;214.35;;;;;;;13.25;100.00;100338.94;5058768;28;20372;-80
2023/07/24 00:04:10;;;;;;;377.92;210.95;;;;;;;13.28;100.00;100349.34;5056885;28;20471;-80
2023/07/24 00:06:36;;;;;;;338.20;190.88;;;;;;;13.27;100.00;100347.72;5057997;28;20043;-81
2023/07/24 00:09:01;;;;;;;373.83;208.98;;;;;;;13.14;100.00;100343.88;5038073;28;20036;-79
2023/07/24 00:11:27;;;;;;;327.17;185.20;;;;;;;13.17;100.00;100359.69;5038162;28;20029;-81
2023/07/24 00:13:53;;;;;;;328.35;186.73;;;;;;;13.04;100.00;100353.41;5031626;28;20029;-79
2023/07/24 00:16:19;;;;;;;336.88;190.73;;;;;;;12.88;100.00;100346.50;5075819;28;20039;-81
2023/07/24 00:18:45;;;;;;;339.35;192.07;;;;;;;12.75;100.00;100339.16;5057585;28;20033;-79
2023/07/24 00:21:13;;;;;;;372.77;208.27;;;;;;;12.88;100.00;100359.97;5057989;28;20032;-80
2023/07/24 00:23:38;;;;;;;335.42;190.13;;;;;;;12.91;100.00;100359.56;5074169;28;20033;-79
2023/07/24 00:26:04;;;;;;;333.65;188.73;;;;;;;12.97;100.00;100372.28;5074521;28;20078;-78
2023/07/24 00:28:30;;;;;;;336.40;191.07;;;;;;;13.00;100.00;100371.88;5057758;28;20036;-79
2023/07/24 00:30:58;;;;;;;339.50;192.68;;;;;;;12.88;100.00;100360.81;5074410;28;20039;-80
2023/07/24 00:33:24;;;;;;;342.55;194.25;;;;;;;12.97;100.00;100369.59;5053506;28;20495;-79
2023/07/24 00:35:49;;;;;;;344.58;194.60;;;;;;;12.80;100.00;100357.47;5037562;28;20041;-80
2023/07/24 00:38:15;;;;;;;347.45;197.15;;;;;;;12.78;100.00;100373.84;5054346;28;20040;-80
2023/07/24 00:40:40;;;;;;;360.10;204.95;;;;;;;12.64;100.00;100366.72;5044251;28;20459;-79
2023/07/24 00:43:08;;;;;;;358.05;203.70;;;;;;;12.52;100.00;100369.97;5074976;28;20029;-80
2023/07/24 00:45:34;;;;;;;385.90;217.88;;;;;;;12.45;100.00;100376.34;5057688;28;20032;-79
2023/07/24 00:48:00;;;;;;;387.88;219.07;;;;;;;12.15;100.00;100355.00;5075153;28;20024;-79
2023/07/24 00:50:26;;;;;;;326.77;187.63;;;;;;;12.32;100.00;100382.47;5039813;28;20470;-79
2023/07/24 00:52:52;;;;;;;332.98;191.52;;;;;;;12.37;100.00;100379.19;5073944;28;20036;-79
2023/07/24 00:55:18;;;;;;;335.23;193.05;;;;;;;12.32;100.00;100385.16;5056810;28;20032;-79
2023/07/24 00:57:44;;;;;;;335.48;192.95;;;;;;;12.16;100.00;100367.44;5074871;28;20036;-80
2023/07/24 01:00:11;;;;;;;340.70;195.98;;;;;;;12.17;100.00;100379.91;5057339;28;20115;-80
2023/07/24 01:02:38;;;;;;;338.27;194.70;;;;;;;12.03;100.00;100378.94;5053956;28;20040;-80
2023/07/24 01:05:03;;;;;;;346.10;199.68;;;;;;;11.94;100.00;100372.03;5037421;28;20025;-80
2023/07/24 01:07:31;;;;;;;350.10;201.45;;;;;;;11.96;100.00;100393.38;5069586;28;20029;-79
2023/07/24 01:09:57;;;;;;;354.15;202.57;;;;;;;11.85;100.00;100386.63;5021007;28;20040;-80
2023/07/24 01:12:32;;;;;;;351.10;203.38;;;;;;;11.70;100.00;100377.78;5073091;28;20114;-81
2023/07/24 01:15:14;;;;;;;342.10;198.38;;;;;;;11.70;100.00;100393.94;5074520;28;20047;-79
2023/07/24 01:17:46;;;;;;;336.73;197.03;;;;;;;11.68;100.00;100399.53;5040529;28;20157;-79
2023/07/24 01:20:15;;;;;;;337.15;197.57;;;;;;;11.58;100.00;100385.53;5073074;28;20056;-79
2023/07/24 01:23:19;;;;;;;336.95;197.02;;;;;;;11.38;100.00;100363.81;5040081;28;20044;-81
2023/07/24 01:25:58;;;;;;;344.58;202.35;;;;;;;11.54;100.00;100395.84;5073839;28;20032;-79
2023/07/24 01:28:25;;;;;;;344.90;201.02;;;;;;;11.46;100.00;100398.69;5072509;28;20028;-80
2023/07/24 01:30:51;;;;;;;342.73;200.52;;;;;;;11.27;100.00;100373.19;5036741;28;20178;-79
2023/07/24 01:33:17;;;;;;;341.83;200.73;;;;;;;11.50;100.00;100393.72;5036524;28;20037;-80
2023/07/24 01:35:43;;;;;;;343.73;201.43;;;;;;;11.32;100.00;100362.69;5003725;28;20119;-80
2023/07/24 01:38:11;;;;;;;343.08;199.85;;;;;;;11.60;100.00;100399.66;5069848;28;20033;-79
2023/07/24 01:40:41;;;;;;;347.10;202.82;;;;;;;11.52;100.00;100383.63;5055179;28;20048;-79
2023/07/24 01:43:07;;;;;;;349.33;204.45;;;;;;;11.56;100.00;100401.88;5056413;28;20041;-79
2023/07/24 01:45:35;;;;;;;347.35;202.00;;;;;;;11.56;100.00;100407.25;5072738;28;20043;-79
2023/07/24 01:48:04;;;;;;;348.00;203.55;;;;;;;11.57;100.00;100402.72;5072131;28;20028;-79
2023/07/24 01:50:29;;;;;;;345.23;202.63;;;;;;;11.47;100.00;100396.81;5056475;28;20040;-78
2023/07/24 01:52:57;;;;;;;344.23;201.05;;;;;;;11.40;100.00;100400.25;5072868;28;20078;-79
2023/07/24 01:55:25;;;;;;;345.63;202.50;;;;;;;11.36;100.00;100406.22;5072561;28;20032;-79
2023/07/24 01:57:51;;;;;;;346.05;203.48;;;;;;;11.20;100.00;100397.34;5072390;28;20082;-78
2023/07/24 02:00:16;;;;;;;405.42;235.48;;;;;;;11.15;100.00;100407.84;5055888;28;20033;-79
2023/07/24 02:02:42;;;;;;;409.02;234.95;;;;;;;11.09;100.00;100399.69;5056525;28;20024;-79
2023/07/24 02:05:11;;;;;;;399.77;231.85;;;;;;;11.04;100.00;100400.25;5072109;28;20067;-79
2023/07/24 02:07:37;;;;;;;388.48;226.80;;;;;;;10.91;100.00;100398.22;5055988;28;20068;-79
2023/07/24 02:10:02;;;;;;;393.88;229.13;;;;;;;10.93;100.00;100417.69;5073777;28;20046;-79
2023/07/24 02:12:32;;;;;;;383.42;225.05;;;;;;;10.96;100.00;100411.94;5072605;28;20382;-79
2023/07/24 02:14:59;;;;;;;378.10;222.27;;;;;;;10.94;100.00;100405.91;5072632;28;20041;-79
2023/07/24 02:17:26;;;;;;;374.92;221.13;;;;;;;10.95;100.00;100412.94;5055617;28;20040;-79
2023/07/24 02:19:54;;;;;;;378.00;221.40;;;;;;;10.90;100.00;100415.38;5073797;28;20043;-79
2023/07/24 02:22:20;;;;;;;370.65;218.50;;;;;;;10.76;100.00;100397.38;5072335;28;20037;-78
2023/07/24 02:24:45;;;;;;;371.45;218.70;;;;;;;10.71;100.00;100402.47;5072316;28;20036;-80
2023/07/24 02:27:28;;;;;;;368.33;217.75;;;;;;;10.83;100.00;100425.22;5072077;28;20481;-79
2023/07/24 02:29:54;;;;;;;359.90;213.82;;;;;;;10.64;100.00;100401.53;5071650;28;20021;-78
2023/07/24 02:32:22;;;;;;;366.35;217.30;;;;;;;10.66;100.00;100423.72;5055650;28;20059;-79
2023/07/24 02:34:51;;;;;;;374.13;219.48;;;;;;;10.54;100.00;100417.97;5039347;28;20033;-78
2023/07/24 02:37:17;;;;;;;369.17;217.63;;;;;;;10.45;100.00;100408.28;5038582;28;20047;-79
2023/07/24 02:39:45;;;;;;;372.08;219.48;;;;;;;10.46;100.00;100418.88;5039113;28;20032;-79
2023/07/24 02:42:11;;;;;;;372.10;218.98;;;;;;;10.27;100.00;100397.88;5073422;28;20029;-79
2023/07/24 02:44:37;;;;;;;316.17;189.30;;;;;;;10.37;100.00;100411.06;5038547;28;20031;-79
2023/07/24 02:47:02;;;;;;;363.58;216.80;;;;;;;10.37;100.00;100409.22;5055087;28;20036;-78
2023/07/24 02:49:29;;;;;;;321.50;190.50;;;;;;;10.44;100.00;100420.91;5071644;28;20391;-78
2023/07/24 02:51:54;;;;;;;322.45;192.10;;;;;;;10.47;100.00;100420.53;5039023;28;20048;-81
2023/07/24 02:54:21;;;;;;;320.35;190.90;;;;;;;10.58;100.00;100446.13;5055267;28;20029;-79
2023/07/24 02:56:47;;;;;;;323.42;193.55;;;;;;;10.47;100.00;100436.66;5072192;28;20498;-79
2023/07/24 02:59:12;;;;;;;324.95;191.90;;;;;;;10.29;100.00;100433.47;5071843;28;20032;-79
2023/07/24 03:01:41;;;;;;;336.77;199.75;;;;;;;10.17;100.00;100441.13;5055638;28;20063;-80
2023/07/24 03:04:06;;;;;;;331.48;198.38;;;;;;;10.06;100.00;100442.38;5071349;28;20112;-79
2023/07/24 03:06:32;;;;;;;329.52;197.45;;;;;;;10.00;100.00;100455.69;5056072;28;20107;-80
2023/07/24 03:08:58;;;;;;;307.05;184.48;;;;;;;9.91;100.00;100457.59;5071238;28;20044;-79
2023/07/24 03:11:23;;;;;;;309.88;186.00;;;;;;;9.81;100.00;100440.88;5055433;28;20040;-79
2023/07/24 03:13:49;;;;;;;317.40;188.30;;;;;;;9.71;100.00;100434.91;5071662;28;20382;-79
2023/07/24 03:16:16;;;;;;;312.02;187.52;;;;;;;9.78;100.00;100438.56;5055462;28;20036;-79
2023/07/24 03:18:45;;;;;;;304.98;183.57;;;;;;;9.87;100.00;100451.75;5071909;28;20488;-79
2023/07/24 03:21:13;;;;;;;309.13;186.73;;;;;;;9.89;100.00;100456.94;5055003;28;20042;-80
2023/07/24 03:23:41;;;;;;;340.52;204.73;;;;;;;9.87;100.00;100451.75;5071191;28;20033;-79
2023/07/24 03:26:06;;;;;;;304.02;183.23;;;;;;;9.86;100.00;100455.44;5054905;28;20467;-79
2023/07/24 03:28:32;;;;;;;303.65;183.25;;;;;;;9.81;100.00;100463.19;5071574;28;20039;-79
2023/07/24 03:30:58;;;;;;;288.55;174.30;;;;;;;9.64;100.00;100467.03;5072926;28;20033;-79
2023/07/24 03:33:28;;;;;;;287.27;174.77;;;;;;;9.50;100.00;100457.88;5038934;28;20399;-80
2023/07/24 03:35:53;;;;;;;287.70;175.25;;;;;;;9.43;100.00;100448.84;5071159;28;20483;-79
2023/07/24 03:38:19;;;;;;;283.73;171.40;;;;;;;9.48;100.00;100465.25;5039860;28;20036;-79
2023/07/24 03:40:45;;;;;;;288.23;173.90;;;;;;;9.46;100.00;100464.59;5058467;28;20463;-79
2023/07/24 03:43:10;;;;;;;286.10;172.77;;;;;;;9.37;100.00;100461.13;5055031;28;20119;-79
2023/07/24 03:45:36;;;;;;;278.02;170.30;;;;;;;9.45;100.00;100476.34;5056238;28;20029;-79
2023/07/24 03:48:01;;;;;;;280.10;170.25;;;;;;;9.62;100.00;100480.59;5056477;28;20025;-79
2023/07/24 03:50:29;;;;;;;292.73;179.38;;;;;;;9.75;100.00;100476.50;5038832;28;20032;-79
2023/07/24 03:52:54;;;;;;;286.33;174.43;;;;;;;9.93;100.00;100474.38;5029228;28;20097;-79
2023/07/24 03:55:22;;;;;;;280.02;171.48;;;;;;;9.90;100.00;100483.63;5075200;28;20029;-79
2023/07/24 03:57:47;;;;;;;268.08;164.30;;;;;;;9.67;100.00;100463.97;5074893;28;20032;-79
2023/07/24 04:00:14;;;;;;;279.13;170.82;;;;;;;9.66;100.00;100481.94;5074459;28;20026;-79
2023/07/24 04:02:39;;;;;;;260.67;158.30;;;;;;;9.64;100.00;100483.94;5038080;28;20488;-79
2023/07/24 04:05:05;;;;;;;255.13;156.07;;;;;;;9.45;100.00;100479.03;5038531;28;20036;-79
2023/07/24 04:07:31;;;;;;;265.48;162.77;;;;;;;9.38;100.00;100475.38;5053980;28;20029;-80
2023/07/24 04:09:58;;;;;;;258.08;158.70;;;;;;;9.46;100.00;100496.78;5074848;28;20511;-80
2023/07/24 04:12:24;;;;;;;255.77;156.85;;;;;;;9.42;100.00;100496.31;5057913;28;20466;-79
2023/07/24 04:14:52;;;;;;;252.23;154.98;;;;;;;9.39;100.00;100488.63;5058001;28;20029;-79
2023/07/24 04:17:22;;;;;;;246.70;152.25;;;;;;;9.61;100.00;100496.91;5075151;28;20468;-80
2023/07/24 04:19:48;;;;;;;252.55;155.40;;;;;;;9.81;100.00;100503.47;5076038;28;20033;-79
2023/07/24 04:22:13;;;;;;;258.85;157.75;;;;;;;9.86;100.00;100487.66;5075837;28;20075;-79
2023/07/24 04:24:39;;;;;;;247.55;153.27;;;;;;;10.10;100.00;100499.25;5057204;28;20111;-79
2023/07/24 04:27:05;;;;;;;258.45;157.25;;;;;;;10.06;100.00;100477.31;5040874;28;20036;-79
2023/07/24 04:29:30;;;;;;;259.98;155.43;;;;;;;10.26;100.00;100482.19;5074191;28;20036;-79
2023/07/24 04:31:56;;;;;;;264.95;160.50;;;;;;;10.43;100.00;100491.00;5041233;28;20036;-79
2023/07/24 04:34:22;;;;;;;310.27;183.07;;;;;;;10.55;100.00;100482.28;5073203;28;20024;-79
2023/07/24 04:36:47;;;;;;;306.95;182.27;;;;;;;10.67;100.00;100485.38;5057548;28;20035;-79
2023/07/24 04:39:13;;;;;;;314.75;188.23;;;;;;;10.82;100.00;100495.31;5073925;28;20028;-79
2023/07/24 04:41:38;;;;;;;323.73;190.88;;;;;;;11.00;100.00;100512.75;5041088;28;20455;-79
2023/07/24 04:44:04;;;;;;;322.00;188.57;;;;;;;10.90;100.00;100479.09;5074965;28;20029;-79
2023/07/24 04:46:29;;;;;;;256.50;152.60;;;;;;;11.15;100.00;100503.88;5040122;28;20085;-81
2023/07/24 04:48:55;;;;;;;297.42;169.57;;;;;;;11.27;100.00;100523.91;5056056;28;20410;-81
2023/07/24 04:51:21;;;;;;;312.42;180.48;;;;;;;11.28;100.00;100514.81;5074916;28;20078;-81
2023/07/24 04:53:49;;;;;;;316.63;180.43;;;;;;;11.36;100.00;100522.78;5073290;28;20466;-79
2023/07/24 04:56:14;;;;;;;293.83;168.82;;;;;;;11.35;100.00;100514.91;5040207;28;20066;-79
2023/07/24 04:58:40;;;;;;;307.25;177.32;;;;;;;11.34;100.00;100513.25;5074678;28;20065;-79
2023/07/24 05:01:05;;;;;;;315.38;177.77;;;;;;;11.37;100.00;100512.84;5073688;28;20408;-79
2023/07/24 05:03:32;;;;;;;308.05;176.48;;;;;;;11.53;100.00;100538.75;5036580;28;20033;-79
2023/07/24 05:05:58;;;;;;;312.23;179.60;;;;;;;11.48;100.00;100522.31;5036715;28;20037;-79
2023/07/24 05:08:24;;;;;;;306.73;176.20;;;;;;;11.50;100.00;100512.19;5056582;28;20032;-79
2023/07/24 05:10:59;;;;;;;310.85;177.45;;;;;;;11.55;100.00;100523.25;5057110;28;20060;-79
2023/07/24 05:13:25;;;;;;;312.85;178.43;;;;;;;11.53;100.00;100523.41;5073038;28;20036;-79
2023/07/24 05:15:51;;;;;;;312.80;178.00;;;;;;;11.70;100.00;100542.91;5056923;28;20047;-79
2023/07/24 05:18:17;;;;;;;311.75;176.80;;;;;;;11.71;100.00;100543.75;5040305;28;20032;-79
2023/07/24 05:20:47;;;;;;;308.52;173.77;;;;;;;11.75;100.00;100543.19;5056513;28;20498;-80
2023/07/24 05:23:13;;;;;;;308.80;174.57;;;;;;;11.77;100.00;100551.88;5053102;28;20444;-79
2023/07/24 05:25:38;;;;;;;307.52;173.75;;;;;;;11.80;100.00;100556.94;5036684;28;20064;-79
2023/07/24 05:28:04;;;;;;;309.55;175.27;;;;;;;11.77;100.00;100541.13;5052951;28;20486;-79
2023/07/24 05:30:30;;;;;;;306.95;173.32;;;;;;;11.90;100.00;100561.19;5036873;28;20051;-79
2023/07/24 05:32:55;;;;;;;304.15;173.13;;;;;;;11.92;100.00;100556.47;5042974;28;20352;-79
2023/07/24 05:35:21;;;;;;;303.45;171.95;;;;;;;11.93;100.00;100556.25;5072711;28;20036;-79
2023/07/24 05:37:47;;;;;;;306.35;172.05;;;;;;;11.94;100.00;100552.56;5056456;28;20433;-79
2023/07/24 05:40:13;;;;;;;305.50;171.43;;;;;;;12.04;100.00;100560.31;5072977;28;20490;-80
2023/07/24 05:42:41;;;;;;;302.83;171.77;;;;;;;12.05;100.00;100557.44;5073532;28;20032;-80
2023/07/24 05:45:08;;;;;;;302.15;170.80;;;;;;;12.16;100.00;100566.88;5055863;28;20449;-79
2023/07/24 05:47:34;;;;;;;297.65;167.27;;;;;;;12.25;100.00;100573.84;5056178;28;20029;-79
2023/07/24 05:49:59;;;;;;;301.40;166.93;;;;;;;12.25;100.00;100551.41;5072886;28;20094;-79
2023/07/24 05:52:25;;;;;;;296.95;167.20;;;;;;;12.31;100.00;100551.50;5055523;28;20032;-80
2023/07/24 05:54:50;;;;;;;302.15;168.98;;;;;;;12.49;100.00;100572.63;5073428;28;20435;-79
2023/07/24 05:57:16;;;;;;;295.95;164.65;;;;;;;12.59;100.00;100574.16;5055672;28;20122;-79
2023/07/24 05:59:42;;;;;;;302.40;167.77;;;;;;;12.70;100.00;100571.78;5072715;28;20028;-81
2023/07/24 06:02:10;;;;;;;283.33;160.63;;;;;;;12.84;100.00;100570.03;5071309;28;20032;-81
2023/07/24 06:04:36;;;;;;;306.77;172.82;;;;;;;12.89;100.00;100575.66;5073547;28;20056;-80
2023/07/24 06:07:02;;;;;;;299.98;167.90;;;;;;;13.05;100.00;100579.13;5056039;28;20052;-80
2023/07/24 06:09:27;;;;;;;302.25;168.57;;;;;;;13.02;100.00;100564.16;5072416;28;20028;-79
2023/07/24 06:11:53;;;;;;;302.55;168.25;;;;;;;13.04;100.00;100570.16;5055512;28;20394;-81
2023/07/24 06:14:19;;;;;;;285.75;159.60;;;;;;;13.18;100.00;100590.84;5072615;28;20085;-81
2023/07/24 06:16:44;;;;;;;283.45;157.13;;;;;;;13.03;100.00;100567.66;5072552;28;20038;-80
2023/07/24 06:19:10;;;;;;;289.90;159.57;;;;;;;13.16;100.00;100586.66;5072498;28;20029;-80
2023/07/24 06:21:35;;;;;;;298.70;166.25;;;;;;;13.16;100.00;100598.28;5072174;28;20029;-80
2023/07/24 06:24:01;;;;;;;295.17;164.73;;;;;;;13.09;100.00;100610.91;5072307;28;20038;-81
2023/07/24 06:26:27;;;;;;;297.60;166.75;;;;;;;13.03;100.00;100600.88;5055991;28;20025;-81
2023/07/24 06:28:53;;;;;;;290.63;161.55;;;;;;;13.05;100.00;100603.41;5071617;28;20045;-80
2023/07/24 06:31:20;;;;;;;294.83;165.10;;;;;;;13.19;100.00;100600.59;5038998;28;20032;-80
2023/07/24 06:33:48;;;;;;;298.08;164.35;;;;;;;13.34;100.00;100592.44;5038542;28;20131;-80
2023/07/24 06:36:15;;;;;;;293.52;162.98;;;;;;;13.60;100.00;100607.97;5072111;28;20043;-80
2023/07/24 06:38:42;;;;;;;273.90;153.48;;;;;;;13.74;100.00;100614.25;5073277;28;20029;-80
2023/07/24 06:41:10;;;;;;;269.52;150.32;;;;;;;13.91;100.00;100613.91;5072378;28;20024;-80
2023/07/24 06:43:36;;;;;;;297.48;160.43;;;;;;;13.97;100.00;100600.44;5072736;28;20024;-80
2023/07/24 06:46:04;;;;;;;299.30;163.02;;;;;;;14.12;100.00;100621.91;5072356;28;20527;-80
2023/07/24 06:48:30;;;;;;;294.23;162.25;;;;;;;14.18;100.00;100623.78;5038938;28;20024;-80
2023/07/24 06:50:57;;;;;;;296.98;161.68;;;;;;;14.26;100.00;100612.81;5072675;28;20395;-80
2023/07/24 06:53:23;;;;;;;282.15;155.70;;;;;;;14.46;100.00;100633.66;5071071;28;20024;-80
2023/07/24 06:55:48;;;;;;;285.75;155.75;;;;;;;14.46;100.00;100620.13;5071542;28;20044;-81
2023/07/24 06:58:15;;;;;;;285.33;155.55;;;;;;;14.65;100.00;100627.47;5072727;28;20025;-81
2023/07/24 07:00:43;;;;;;;276.02;152.68;;;;;;;14.93;100.00;100627.31;5054968;28;20040;-81
2023/07/24 07:03:08;;;;;;;285.48;154.57;;;;;;;15.80;100.00;100625.34;5073492;28;20506;-82
2023/07/24 07:05:34;;;;;;;297.63;158.90;;;;;;;16.95;100.00;100638.13;5072698;28;20041;-80
2023/07/24 07:07:59;;;;;;;308.63;163.55;;;;;;;18.82;100.00;100637.69;5071497;28;20085;-80
2023/07/24 07:10:25;;;;;;;393.50;199.98;;;;;;;18.65;92.75;100631.22;5055791;28;20182;-81
2023/07/24 07:12:51;;;;;;;392.85;198.48;;;;;;;18.88;93.12;100620.41;5039912;28;20024;-81
2023/07/24 07:15:16;;;;;;;394.35;198.27;;;;;;;18.69;90.80;100635.13;5042353;28;20431;-81
2023/07/24 07:17:42;;;;;;;385.75;194.73;;;;;;;18.61;88.87;100619.97;5058950;28;20029;-82
2023/07/24 07:20:08;;;;;;;375.73;191.07;;;;;;;18.05;89.91;100639.34;5075200;28;20024;-80
2023/07/24 07:22:34;;;;;;;364.02;184.90;;;;;;;17.71;91.13;100647.88;5058644;28;20043;-81
2023/07/24 07:24:59;;;;;;;351.77;179.60;;;;;;;17.70;90.87;100612.72;5063740;28;20086;-83
2023/07/24 07:27:25;;;;;;;347.20;177.18;;;;;;;17.46;90.26;100645.19;5065904;28;20029;-84
2023/07/24 07:29:53;;;;;;;351.50;179.93;;;;;;;16.70;93.82;100627.22;5049438;28;20036;-81
2023/07/24 07:32:22;;;;;;;350.85;180.23;;;;;;;16.04;96.95;100631.94;5047160;28;20025;-82
2023/07/24 07:34:51;;;;;;;355.95;182.25;;;;;;;15.66;100.00;100636.41;5051387;28;20032;-82
2023/07/24 07:37:19;;;;;;;349.20;179.30;;;;;;;15.56;100.00;100628.72;5054863;28;20028;-82
2023/07/24 07:39:45;;;;;;;349.75;181.02;;;;;;;15.63;100.00;100621.41;5053340;28;20117;-83
2023/07/24 07:42:11;;;;;;;339.08;176.27;;;;;;;16.54;100.00;100644.84;5049514;28;20028;-82
2023/07/24 07:44:37;;;;;;;338.83;174.93;;;;;;;17.85;95.87;100643.16;5063639;28;20033;-83
2023/07/24 07:47:04;;;;;;;341.00;175.30;;;;;;;17.57;92.51;100652.63;5048236;28;20478;-81
2023/07/24 07:49:30;;;;;;;335.45;173.77;;;;;;;17.77;90.41;100638.81;5048253;28;20452;-83
2023/07/24 07:51:56;;;;;;;338.92;175.30;;;;;;;20.71;76.60;100651.13;5070304;28;20536;-80
2023/07/24 07:54:22;;;;;;;366.13;185.43;;;;;;;21.90;71.58;100650.00;5066835;28;20111;-81
2023/07/24 07:56:53;;;;;;;381.70;187.88;;;;;;;22.65;61.13;100648.44;5057374;28;20043;-80
2023/07/24 07:59:19;;;;;;;380.15;188.02;;;;;;;21.68;64.18;100652.72;5074658;28;20060;-81
2023/07/24 08:01:45;;;;;;;379.52;188.02;;;;;;;22.61;61.78;100650.03;5076252;28;20029;-81
2023/07/24 08:04:12;;;;;;;380.33;187.90;;;;;;;22.72;57.53;100638.09;5058585;28;20455;-81
2023/07/24 08:06:38;;;;;;;372.38;184.13;;;;;;;22.83;56.99;100653.53;5074773;28;20024;-81
2023/07/24 08:09:03;;;;;;;369.85;182.00;;;;;;;23.04;57.32;100653.75;5058091;28;20489;-80
2023/07/24 08:11:29;;;;;;;356.02;176.52;;;;;;;23.35;56.67;100654.00;5057955;28;20036;-80
2023/07/24 08:13:55;;;;;;;363.08;179.50;;;;;;;23.52;54.84;100629.97;5048786;28;20029;-79
2023/07/24 08:16:20;;;;;;;357.08;176.90;;;;;;;23.96;53.77;100654.41;5057730;28;20029;-82
2023/07/24 08:18:47;;;;;;;353.27;174.60;;;;;;;24.20;51.66;100653.94;5074461;28;20123;-80
2023/07/24 08:21:14;;;;;;;357.25;176.63;;;;;;;24.09;52.24;100648.41;5040814;28;20028;-79
2023/07/24 08:23:41;;;;;;;359.42;177.48;;;;;;;24.32;52.31;100660.03;5072530;28;20032;-81
2023/07/24 08:26:07;;;;;;;354.63;175.35;;;;;;;24.59;50.50;100656.28;5040037;28;20037;-79
2023/07/24 08:28:36;;;;;;;350.30;174.30;;;;;;;24.51;50.52;100650.22;5024162;28;20108;-80
2023/07/24 08:31:02;;;;;;;349.85;173.20;;;;;;;24.75;51.71;100650.53;5074336;28;20471;-82
2023/07/24 08:33:28;;;;;;;349.40;172.75;;;;;;;25.21;49.18;100658.00;5053765;28;20094;-80
2023/07/24 08:36:02;;;;;;;353.70;174.98;;;;;;;25.08;49.03;100653.03;5036369;28;20041;-80
2023/07/24 08:38:27;;;;;;;349.30;173.70;;;;;;;25.32;49.02;100664.31;5037697;28;20102;-82
2023/07/24 08:41:01;;;;;;;351.13;173.18;;;;;;;25.68;46.42;100670.63;5054195;28;20028;-81
2023/07/24 08:43:27;;;;;;;351.98;174.68;;;;;;;25.63;45.55;100668.69;5053986;28;20044;-80
2023/07/24 08:45:52;;;;;;;352.30;173.82;;;;;;;25.47;45.88;100664.31;5037391;28;20055;-80
2023/07/24 08:48:19;;;;;;;346.55;171.65;;;;;;;25.21;46.49;100664.34;5053964;28;20102;-80
2023/07/24 08:50:45;;;;;;;347.58;172.70;;;;;;;25.59;47.24;100666.75;5053747;28;20101;-82
2023/07/24 08:53:11;;;;;;;343.52;171.52;;;;;;;25.79;44.34;100647.44;5037126;28;20079;-81
2023/07/24 08:55:39;;;;;;;350.88;173.43;;;;;;;26.10;44.58;100677.69;5053677;28;20033;-81
2023/07/24 08:58:06;;;;;;;354.10;175.35;;;;;;;26.13;44.01;100674.34;5053637;28;20471;-80
2023/07/24 09:00:32;;;;;;;348.92;173.80;;;;;;;25.94;44.47;100676.09;5053859;28;20032;-80
2023/07/24 09:02:58;;;;;;;352.02;174.90;;;;;;;26.14;44.94;100669.66;5037354;28;20033;-80
2023/07/24 09:05:23;;;;;;;345.35;171.68;;;;;;;26.49;43.34;100674.19;5053373;28;20036;-81
2023/07/24 09:07:49;;;;;;;349.75;173.20;;;;;;;26.35;42.35;100659.38;5053009;28;20418;-82
2023/07/24 09:10:15;;;;;;;348.45;173.07;;;;;;;26.55;42.48;100678.59;5019347;28;20047;-79
2023/07/24 09:12:42;;;;;;;355.30;175.30;;;;;;;26.83;41.40;100670.69;5023763;28;20450;-77
2023/07/24 09:15:08;;;;;;;354.30;174.27;;;;;;;26.15;42.50;100669.41;5036994;28;20081;-77
2023/07/24 09:17:35;;;;;;;347.75;171.23;;;;;;;24.97;44.73;100677.78;5072966;28;20036;-76
2023/07/24 09:20:02;;;;;;;352.58;173.60;;;;;;;24.82;46.08;100661.25;5057081;28;20028;-76
2023/07/24 09:22:28;;;;;;;361.35;177.43;;;;;;;26.07;43.15;100675.50;5074643;28;20043;-77
2023/07/24 09:24:55;;;;;;;354.95;175.15;;;;;;;26.64;40.71;100671.34;5073238;28;20025;-76
2023/07/24 09:27:28;;;;;;;356.45;174.60;;;;;;;25.56;42.36;100670.06;5056596;28;20119;-77
2023/07/24 09:29:54;;;;;;;;;;;;;;;25.73;43.37;100681.63;5073705;28;20064;-77
2023/07/24 09:32:21;;;;;;;365.42;179.57;;;;;;;26.62;42.34;100681.88;5035876;28;20327;-78
2023/07/24 09:34:48;;;;;;;357.08;175.60;;;;;;;26.72;39.71;100679.03;5064275;28;20060;-79
2023/07/24 09:37:25;;;;;;;355.48;174.90;;;;;;;24.49;45.06;100674.41;5071544;28;20055;-76
2023/07/24 09:39:50;;;;;;;365.33;178.95;;;;;;;23.33;48.23;100672.63;5056168;28;20486;-77
2023/07/24 09:42:16;;;;;;;366.65;179.32;;;;;;;22.68;51.42;100678.09;5039858;28;20033;-77
2023/07/24 09:44:42;;;;;;;366.65;178.30;;;;;;;22.58;51.17;100678.78;5056590;28;20086;-77
2023/07/24 09:47:11;;;;;;;361.85;177.68;;;;;;;22.38;51.24;100662.94;5067366;28;20131;-77
2023/07/24 09:49:37;;;;;;;362.23;178.60;;;;;;;21.94;52.59;100679.38;5030431;28;20040;-77
2023/07/24 09:52:06;;;;;;;360.67;177.40;;;;;;;21.67;54.41;100676.53;5072965;28;20036;-76
2023/07/24 09:54:41;;;;;;;368.63;182.80;;;;;;;21.42;55.03;100660.53;5056378;28;20100;-77
2023/07/24 09:57:08;;;;;;;368.13;180.93;;;;;;;21.30;56.10;100679.75;5059938;28;20128;-77
2023/07/24 09:59:34;;;;;;;369.80;181.45;;;;;;;21.21;57.59;100677.69;5003547;28;20041;-76
2023/07/24 10:02:00;;;;;;;372.88;183.48;;;;;;;21.43;58.11;100677.78;5053944;28;20033;-76
2023/07/24 10:04:34;;;;;;;356.83;177.80;;;;;;;21.49;57.01;100677.63;5052328;28;20059;-76
2023/07/24 10:07:02;;;;;;;350.55;174.18;;;;;;;21.50;57.02;100682.00;5039741;28;20036;-76
2023/07/24 10:09:28;;;;;;;355.30;176.05;;;;;;;21.54;54.78;100665.09;5039003;28;20021;-77
2023/07/24 10:11:54;;;;;;;354.75;176.65;;;;;;;21.81;53.75;100678.91;5056166;28;20047;-78
2023/07/24 10:14:20;;;;;;;353.98;175.18;;;;;;;21.77;54.90;100677.75;5073761;28;20032;-77
2023/07/24 10:16:46;;;;;;;344.73;171.63;;;;;;;21.91;55.02;100676.28;5072283;28;20025;-77
2023/07/24 10:19:18;;;;;;;349.45;173.73;;;;;;;21.91;54.38;100679.88;5073758;28;20029;-77
2023/07/24 10:21:48;;;;;;;347.67;173.45;;;;;;;21.91;55.33;100657.13;5055216;28;20032;-78
2023/07/24 10:24:15;;;;;;;341.05;169.65;;;;;;;21.96;53.96;100673.63;5039198;28;20102;-77
2023/07/24 10:26:41;;;;;;;346.30;172.20;;;;;;;22.15;55.13;100690.59;5038790;28;20037;-77
2023/07/24 10:29:07;;;;;;;347.55;172.02;;;;;;;22.10;56.33;100682.31;5055755;28;20036;-77
2023/07/24 10:31:32;;;;;;;347.55;172.57;;;;;;;22.12;54.89;100691.06;5071409;28;20387;-77
2023/07/24 10:34:05;;;;;;;342.77;168.80;;;;;;;22.28;56.57;100690.25;5071665;28;20471;-77
2023/07/24 10:36:34;;;;;;;;;;;;;;;23.28;54.88;100700.84;5056729;28;20564;-77
2023/07/24 10:39:02;;;;;;;350.67;174.40;;;;;;;23.88;50.74;100679.63;5054471;28;19914;-76
2023/07/24 10:41:38;;;;;;;341.75;170.25;;;;;;;23.20;51.61;100684.88;5070155;28;20055;-79
2023/07/24 10:44:04;;;;;;;340.88;169.63;;;;;;;22.31;52.83;100683.41;5037268;28;20052;-77
2023/07/24 10:46:38;;;;;;;337.80;168.68;;;;;;;21.80;56.01;100697.22;5069961;28;20364;-77
2023/07/24 10:49:03;;;;;;;341.00;169.05;;;;;;;21.72;53.51;100703.97;5073176;28;20017;-76